Preview of NWS' New Version of Forecast
This preview is not operational and should not be used for support decisions.

Terminal Aerodrome Forecast (TAF)

Issued by National Weather Service (NWS)

                            
000
FTUS42 KCAE 210539
TAFOGB
TAF
KOGB 210539Z 2106/2206 23005KT P6SM SCT030 BKN100
     FM220100 20008KT P6SM SCT040=